createdAt,value
2018-05-24T00:00:02.581Z,14.6
2018-05-24T00:15:02.801Z,14.3
2018-05-24T00:30:03.094Z,14.2
2018-05-24T00:45:02.452Z,14.2
2018-05-24T01:00:02.677Z,14.1
2018-05-24T01:15:02.889Z,14.1
2018-05-24T01:30:02.245Z,13.8
2018-05-24T01:45:02.489Z,13.7
2018-05-24T02:00:02.755Z,13.6
2018-05-24T02:15:02.983Z,13.4
2018-05-24T02:30:02.309Z,13.3
2018-05-24T02:45:02.604Z,13.5
2018-05-24T03:00:02.885Z,13.3
2018-05-24T03:15:03.115Z,13.6
2018-05-24T03:30:02.450Z,13.4
2018-05-24T03:45:02.674Z,13.4
2018-05-24T04:00:03.011Z,13.4
2018-05-24T04:15:02.333Z,13.8
2018-05-24T04:30:02.643Z,13.9
2018-05-24T04:45:02.963Z,13.9
2018-05-24T05:00:02.255Z,14.2
2018-05-24T05:15:02.557Z,14.4
2018-05-24T05:30:02.904Z,14.5
2018-05-24T05:45:03.198Z,14.9
2018-05-24T06:00:02.482Z,14.9
2018-05-24T06:15:02.786Z,15.2
2018-05-24T06:30:03.204Z,15.3
2018-05-24T06:45:02.540Z,15.9
2018-05-24T07:00:02.869Z,16.2
2018-05-24T07:15:02.176Z,16.3
2018-05-24T07:30:02.522Z,16.8
2018-05-24T07:45:02.854Z,16.9
2018-05-24T08:00:03.320Z,17
2018-05-24T08:15:02.655Z,17
2018-05-24T08:30:02.992Z,17.1
2018-05-24T08:45:02.269Z,18.1
2018-05-24T09:00:02.490Z,18.1
2018-05-24T09:15:02.687Z,18
2018-05-24T09:30:02.974Z,17.9
2018-05-24T09:45:02.257Z,18
2018-05-24T10:00:02.497Z,18.1
2018-05-24T10:15:02.797Z,17.9
2018-05-24T10:30:03.208Z,17.7
2018-05-24T10:45:02.758Z,18.1
2018-05-24T11:00:03.004Z,18.3
2018-05-24T11:15:02.344Z,18.4
2018-05-24T11:30:02.668Z,18.5
2018-05-24T11:45:02.906Z,18.5
2018-05-24T12:00:03.275Z,18.4
2018-05-24T12:15:02.702Z,18.5
2018-05-24T12:30:03.101Z,18.1
2018-05-24T12:45:02.458Z,18
2018-05-24T13:00:02.697Z,18.6
2018-05-24T13:15:02.991Z,18.5
2018-05-24T13:30:02.384Z,18.5
2018-05-24T13:45:02.663Z,20.4
2018-05-24T14:00:02.908Z,20.7
2018-05-24T14:15:03.251Z,21
2018-05-24T14:30:02.764Z,22.1
2018-05-24T14:45:03.055Z,22.6
2018-05-24T15:00:02.434Z,23.5
2018-05-24T15:15:02.690Z,22.3
2018-05-24T15:30:03.091Z,21.6
2018-05-24T15:45:02.462Z,22.4
2018-05-24T16:00:03.016Z,22
2018-05-24T16:15:02.339Z,21.5
2018-05-24T16:30:02.766Z,21.1
2018-05-24T16:45:03.134Z,20.4
2018-05-24T17:00:02.426Z,20.6
2018-05-24T17:15:02.661Z,20.6
2018-05-24T17:30:03.148Z,20.2
2018-05-24T17:45:02.440Z,19.8
2018-05-24T18:00:02.781Z,19.3
2018-05-24T18:15:03.385Z,19
2018-05-24T18:30:02.887Z,18.4
2018-05-24T18:45:03.268Z,18
2018-05-24T19:00:02.623Z,18.1
2018-05-24T19:15:02.871Z,17.5
2018-05-24T19:30:03.341Z,17.1
2018-05-24T19:45:02.598Z,17.1
2018-05-24T20:00:02.812Z,16.7
2018-05-24T20:15:03.075Z,16.4
2018-05-24T20:30:02.512Z,15.6
2018-05-24T20:45:02.860Z,15.6
2018-05-24T21:00:03.347Z,15.9
2018-05-24T21:15:02.643Z,15.8
2018-05-24T21:30:03.261Z,15.6
2018-05-24T21:45:02.539Z,15.9
2018-05-24T22:00:02.866Z,15.6
2018-05-24T22:15:03.165Z,16.1
2018-05-24T22:30:02.574Z,16
2018-05-24T22:45:02.806Z,15.4
2018-05-24T23:00:03.195Z,15.6
2018-05-24T23:15:02.531Z,15.7
2018-05-24T23:30:02.988Z,15.6
2018-05-24T23:45:02.366Z,15.5
